Time;durP1;ratioP1;P1;durP2;ratioP2;P2;SDS_P1;SDS_P2;PMS_P1;PMS_P2;Temp;Humidity;BMP_temperature;BMP_pressure;BME280_temperature;BME280_humidity;BME280_pressure;Samples;Min_cycle;Max_cycle;Signal;HPM_P1;HPM_P2
2021/09/03 00:00:31;;;;;;;6.32;4.88;;;17.70;99.90;;;;;;5069557;28;20452;-61
2021/09/03 00:02:57;;;;;;;12.07;5.70;;;17.60;99.90;;;;;;5069108;28;20037;-61
2021/09/03 00:05:23;;;;;;;6.82;5.05;;;17.60;99.90;;;;;;5069815;28;20029;-61
2021/09/03 00:07:48;;;;;;;7.20;5.22;;;17.60;99.90;;;;;;5069079;28;20123;-61
2021/09/03 00:10:17;;;;;;;7.22;4.90;;;17.60;99.90;;;;;;5070961;28;20389;-61
2021/09/03 00:12:43;;;;;;;9.30;5.28;;;17.60;99.90;;;;;;5070445;28;20035;-60
2021/09/03 00:15:12;;;;;;;5.90;4.97;;;17.60;99.90;;;;;;5070770;28;20504;-61
2021/09/03 00:17:38;;;;;;;8.77;5.43;;;17.50;99.90;;;;;;5071310;28;20039;-61
2021/09/03 00:20:06;;;;;;;6.00;4.72;;;17.50;99.90;;;;;;5069744;28;20025;-61
2021/09/03 00:22:32;;;;;;;6.65;5.25;;;17.50;99.90;;;;;;5069633;28;20025;-61
2021/09/03 00:24:58;;;;;;;6.97;5.50;;;17.50;99.90;;;;;;5070493;28;20071;-60
2021/09/03 00:27:24;;;;;;;7.40;5.05;;;17.40;99.90;;;;;;5069483;28;20381;-60
2021/09/03 00:29:49;;;;;;;5.63;5.03;;;17.40;99.90;;;;;;5069990;28;20082;-60
2021/09/03 00:32:15;;;;;;;5.65;4.82;;;17.40;99.90;;;;;;5070886;28;20080;-62
2021/09/03 00:34:40;;;;;;;6.65;5.13;;;17.30;99.90;;;;;;5068960;28;20339;-64
2021/09/03 00:37:06;;;;;;;9.40;5.30;;;17.30;99.90;;;;;;5070460;28;20032;-62
2021/09/03 00:39:32;;;;;;;6.80;5.25;;;17.30;99.90;;;;;;5068243;28;20028;-64
2021/09/03 00:41:57;;;;;;;10.13;5.28;;;17.30;99.90;;;;;;5069027;28;20020;-64
2021/09/03 00:44:23;;;;;;;13.07;6.00;;;17.30;99.90;;;;;;5069814;28;20031;-61
2021/09/03 00:46:49;;;;;;;6.05;5.13;;;17.20;99.90;;;;;;5067825;28;20032;-62
2021/09/03 00:49:15;;;;;;;5.82;4.53;;;17.20;99.90;;;;;;5070315;28;20033;-62
2021/09/03 00:51:41;;;;;;;6.85;5.60;;;17.30;99.90;;;;;;5069399;28;20458;-61
2021/09/03 00:54:07;;;;;;;6.38;5.03;;;17.20;99.90;;;;;;5070801;28;20025;-61
2021/09/03 00:56:34;;;;;;;11.05;5.72;;;17.20;99.90;;;;;;5070756;28;20033;-61
2021/09/03 00:59:00;;;;;;;8.82;5.28;;;17.20;99.90;;;;;;5068790;28;20060;-61
2021/09/03 01:01:25;;;;;;;6.03;5.43;;;17.20;99.90;;;;;;5069256;28;20075;-61
2021/09/03 01:03:51;;;;;;;7.00;5.28;;;17.20;99.90;;;;;;5068437;28;20528;-61
2021/09/03 01:06:17;;;;;;;7.57;5.47;;;17.30;99.90;;;;;;5069286;28;20122;-61
2021/09/03 01:08:43;;;;;;;7.93;5.20;;;17.20;99.90;;;;;;5070119;28;20046;-65
2021/09/03 01:11:08;;;;;;;7.15;5.18;;;17.20;99.90;;;;;;5070324;28;20021;-61
2021/09/03 01:13:34;;;;;;;7.72;5.90;;;17.10;99.90;;;;;;5069152;28;20028;-61
2021/09/03 01:16:00;;;;;;;6.90;4.80;;;17.20;99.90;;;;;;5069799;28;20029;-61
2021/09/03 01:18:25;;;;;;;8.45;5.93;;;17.20;99.90;;;;;;5070268;28;20029;-61
2021/09/03 01:20:51;;;;;;;5.85;4.70;;;17.10;99.90;;;;;;5068447;28;20024;-61
2021/09/03 01:23:18;;;;;;;8.23;6.50;;;17.10;99.90;;;;;;5068898;28;20171;-61
2021/09/03 01:25:44;;;;;;;5.78;5.18;;;17.10;99.90;;;;;;5068862;28;20032;-65
2021/09/03 01:28:10;;;;;;;5.78;4.85;;;17.10;99.90;;;;;;5074376;28;20470;-61
2021/09/03 01:30:35;;;;;;;7.55;5.07;;;17.00;99.90;;;;;;5072555;28;20181;-61
2021/09/03 01:33:02;;;;;;;6.97;5.10;;;17.00;99.90;;;;;;5071949;28;20113;-61
2021/09/03 01:35:27;;;;;;;6.53;5.78;;;16.90;99.90;;;;;;5073876;28;20028;-61
2021/09/03 01:37:54;;;;;;;7.30;5.40;;;16.90;99.90;;;;;;5071873;28;20105;-61
2021/09/03 01:40:20;;;;;;;7.38;5.10;;;16.90;99.90;;;;;;5072048;28;20531;-61
2021/09/03 01:42:46;;;;;;;8.18;5.78;;;16.80;99.90;;;;;;5073293;28;20489;-61
2021/09/03 01:45:12;;;;;;;6.97;5.75;;;16.80;99.90;;;;;;5073585;28;20032;-61
2021/09/03 01:47:38;;;;;;;8.00;5.80;;;16.80;99.90;;;;;;5073598;28;20025;-61
2021/09/03 01:50:04;;;;;;;7.38;6.07;;;16.70;99.90;;;;;;5071633;28;20432;-61
2021/09/03 01:52:30;;;;;;;7.68;5.75;;;16.70;99.90;;;;;;5073267;28;20099;-60
2021/09/03 01:54:56;;;;;;;9.13;6.47;;;16.70;99.90;;;;;;5071438;28;20536;-62
2021/09/03 01:57:21;;;;;;;8.43;5.55;;;16.70;99.90;;;;;;5071919;28;20037;-61
2021/09/03 01:59:47;;;;;;;8.15;5.63;;;16.60;99.90;;;;;;5072517;28;20375;-61
2021/09/03 02:02:13;;;;;;;7.82;5.93;;;16.60;99.90;;;;;;5073442;28;20039;-61
2021/09/03 02:04:38;;;;;;;8.88;5.70;;;16.60;99.90;;;;;;5073480;28;20457;-61
2021/09/03 02:07:04;;;;;;;7.00;5.95;;;16.60;99.90;;;;;;5072299;28;20025;-61
2021/09/03 02:09:29;;;;;;;6.72;5.72;;;16.60;99.90;;;;;;5073249;28;20389;-61
2021/09/03 02:11:55;;;;;;;9.80;5.70;;;16.60;99.90;;;;;;5072656;28;20073;-60
2021/09/03 02:14:21;;;;;;;8.48;6.00;;;16.50;99.90;;;;;;5072835;28;20382;-61
2021/09/03 02:16:46;;;;;;;11.30;6.07;;;16.50;99.90;;;;;;5072331;28;20033;-68
2021/09/03 02:19:12;;;;;;;9.57;5.80;;;16.50;99.90;;;;;;5071663;28;20458;-61
2021/09/03 02:21:37;;;;;;;8.93;6.53;;;16.50;99.90;;;;;;5073390;28;20035;-61
2021/09/03 02:24:04;;;;;;;13.65;6.25;;;16.50;99.90;;;;;;5072362;28;20076;-61
2021/09/03 02:26:30;;;;;;;8.85;6.25;;;16.50;99.90;;;;;;5071513;28;20070;-60
2021/09/03 02:28:56;;;;;;;9.20;6.05;;;16.50;99.90;;;;;;5070744;28;20382;-61
2021/09/03 02:31:21;;;;;;;7.40;6.00;;;16.40;99.90;;;;;;5072533;28;20033;-61
2021/09/03 02:33:47;;;;;;;10.02;5.70;;;16.30;99.90;;;;;;5086859;28;20028;-61
2021/09/03 02:36:13;;;;;;;7.50;5.85;;;16.30;99.90;;;;;;5073154;28;20439;-60
2021/09/03 02:38:38;;;;;;;11.13;6.10;;;16.30;99.90;;;;;;5072455;28;20071;-60
2021/09/03 02:41:04;;;;;;;12.32;6.53;;;16.20;99.90;;;;;;5070248;28;20161;-60
2021/09/03 02:43:30;;;;;;;11.25;6.13;;;16.30;99.90;;;;;;5072647;28;20360;-60
2021/09/03 02:45:55;;;;;;;10.02;6.40;;;16.30;99.90;;;;;;5070031;28;20124;-61
2021/09/03 02:48:21;;;;;;;10.88;6.70;;;16.20;99.90;;;;;;5071098;28;20021;-61
2021/09/03 02:50:47;;;;;;;15.63;6.97;;;16.20;99.90;;;;;;5072459;28;20048;-61
2021/09/03 02:53:12;;;;;;;8.70;6.75;;;16.20;99.90;;;;;;5072256;28;20119;-61
2021/09/03 02:55:38;;;;;;;12.60;5.90;;;16.10;99.90;;;;;;5072729;28;20037;-61
2021/09/03 02:58:03;;;;;;;8.43;5.68;;;16.10;99.90;;;;;;5070765;28;20028;-62
2021/09/03 03:00:29;;;;;;;8.73;6.28;;;16.10;99.90;;;;;;5070189;28;20028;-61
2021/09/03 03:02:56;;;;;;;9.75;5.75;;;16.20;99.90;;;;;;5071624;28;20094;-61
2021/09/03 03:05:21;;;;;;;12.00;6.85;;;16.10;99.90;;;;;;5071950;28;20435;-61
2021/09/03 03:07:47;;;;;;;11.23;6.43;;;16.10;99.90;;;;;;5071979;28;20021;-60
2021/09/03 03:10:13;;;;;;;7.93;6.47;;;16.20;99.90;;;;;;5071393;28;20028;-61
2021/09/03 03:12:39;;;;;;;12.20;6.40;;;16.10;99.90;;;;;;5071882;28;20021;-61
2021/09/03 03:15:06;;;;;;;7.85;6.20;;;16.10;99.90;;;;;;5071662;28;20061;-61
2021/09/03 03:17:31;;;;;;;11.43;6.15;;;16.10;99.90;;;;;;5071591;28;20115;-61
2021/09/03 03:19:57;;;;;;;9.63;6.40;;;16.10;99.90;;;;;;5069651;28;20131;-61
2021/09/03 03:22:22;;;;;;;10.18;6.35;;;16.10;99.90;;;;;;5070540;28;20074;-61
2021/09/03 03:24:48;;;;;;;10.48;6.72;;;16.00;99.90;;;;;;5069945;28;20402;-61
2021/09/03 03:27:14;;;;;;;9.60;6.45;;;16.00;99.90;;;;;;5070946;28;20090;-61
2021/09/03 03:29:39;;;;;;;8.40;6.38;;;16.00;99.90;;;;;;5070406;28;20020;-61
2021/09/03 03:32:05;;;;;;;9.88;6.65;;;16.00;99.90;;;;;;5069590;28;20051;-61
2021/09/03 03:34:31;;;;;;;12.02;6.65;;;16.00;99.90;;;;;;5070410;28;20354;-61
2021/09/03 03:36:56;;;;;;;10.15;5.90;;;16.00;99.90;;;;;;5070767;28;20525;-61
2021/09/03 03:39:22;;;;;;;11.55;6.63;;;16.00;99.90;;;;;;5069856;28;20466;-61
2021/09/03 03:41:48;;;;;;;11.23;6.15;;;16.00;99.90;;;;;;5071523;28;20174;-61
2021/09/03 03:44:14;;;;;;;9.50;6.88;;;16.10;99.90;;;;;;5070963;28;20157;-61
2021/09/03 03:46:39;;;;;;;9.13;6.75;;;15.90;99.90;;;;;;5070087;28;20031;-60
2021/09/03 03:49:05;;;;;;;9.15;7.43;;;15.90;99.90;;;;;;5070440;28;20035;-61
2021/09/03 03:51:31;;;;;;;12.15;7.05;;;15.90;99.90;;;;;;5071042;28;20021;-60
2021/09/03 03:53:56;;;;;;;10.05;6.90;;;15.90;99.90;;;;;;5070781;28;20028;-61
2021/09/03 03:56:22;;;;;;;9.55;7.30;;;15.90;99.90;;;;;;5071434;28;20068;-61
2021/09/03 03:58:47;;;;;;;9.27;6.95;;;16.00;99.90;;;;;;5071367;28;20123;-60
2021/09/03 04:01:14;;;;;;;9.23;7.03;;;16.00;99.90;;;;;;5070522;28;20028;-61
2021/09/03 04:03:39;;;;;;;10.50;6.80;;;15.90;99.90;;;;;;5071433;28;20066;-61
2021/09/03 04:06:05;;;;;;;9.63;6.65;;;15.90;99.90;;;;;;5070559;28;20033;-61
2021/09/03 04:08:31;;;;;;;12.10;6.65;;;15.90;99.90;;;;;;5070737;28;20056;-60
2021/09/03 04:10:57;;;;;;;9.13;6.70;;;15.90;99.90;;;;;;5070464;28;20032;-61
2021/09/03 04:13:23;;;;;;;9.43;6.88;;;15.90;99.90;;;;;;5070808;28;20082;-60
2021/09/03 04:15:48;;;;;;;9.65;6.85;;;15.90;99.90;;;;;;5070407;28;20043;-61
2021/09/03 04:18:14;;;;;;;8.65;6.82;;;15.90;99.90;;;;;;5070133;28;20032;-61
2021/09/03 04:20:39;;;;;;;8.70;6.82;;;15.90;99.90;;;;;;5069354;28;20576;-61
2021/09/03 04:23:08;;;;;;;9.15;6.88;;;15.90;99.90;;;;;;5068562;28;20048;-61
2021/09/03 04:25:34;;;;;;;8.98;7.15;;;15.80;99.90;;;;;;5069618;28;20032;-61
2021/09/03 04:28:00;;;;;;;8.32;6.22;;;15.80;99.90;;;;;;5068926;28;20024;-61
2021/09/03 04:30:25;;;;;;;8.30;6.97;;;15.80;99.90;;;;;;5071213;28;20488;-60
2021/09/03 04:32:51;;;;;;;7.78;6.68;;;15.80;99.90;;;;;;5069429;28;20500;-61
2021/09/03 04:35:16;;;;;;;9.68;6.47;;;15.70;99.90;;;;;;5068740;28;20308;-61
2021/09/03 04:37:47;;;;;;;8.73;6.45;;;15.80;99.90;;;;;;5070497;28;20040;-60
2021/09/03 04:40:15;;;;;;;8.68;6.93;;;15.80;99.90;;;;;;5070036;28;20021;-60
2021/09/03 04:42:40;;;;;;;13.52;8.07;;;15.70;99.90;;;;;;5070912;28;20085;-60
2021/09/03 04:45:07;;;;;;;12.90;7.03;;;15.80;99.90;;;;;;5069919;28;20373;-60
2021/09/03 04:47:33;;;;;;;9.90;7.03;;;15.70;99.90;;;;;;5070728;28;20064;-60
2021/09/03 04:49:58;;;;;;;10.73;6.93;;;15.70;99.90;;;;;;5069860;28;20060;-61
2021/09/03 04:52:24;;;;;;;10.18;7.43;;;15.70;99.90;;;;;;5070579;28;20082;-60
2021/09/03 04:54:50;;;;;;;11.40;7.00;;;15.60;99.90;;;;;;5070512;28;20024;-61
2021/09/03 04:57:16;;;;;;;9.50;7.10;;;15.60;99.90;;;;;;5069598;28;20044;-61
2021/09/03 04:59:41;;;;;;;8.60;6.35;;;15.70;99.90;;;;;;5070106;28;20430;-61
2021/09/03 05:02:07;;;;;;;12.02;7.88;;;15.70;99.90;;;;;;5071122;28;20522;-60
2021/09/03 05:04:33;;;;;;;10.73;7.85;;;15.70;99.90;;;;;;5073084;28;20020;-61
2021/09/03 05:06:58;;;;;;;13.00;7.97;;;15.60;99.90;;;;;;5072549;28;20029;-60
2021/09/03 05:09:24;;;;;;;10.25;7.22;;;15.60;99.90;;;;;;5074285;28;20073;-60
2021/09/03 05:11:50;;;;;;;11.02;7.70;;;15.70;99.90;;;;;;5074059;28;20064;-61
2021/09/03 05:14:16;;;;;;;10.85;7.72;;;15.60;99.90;;;;;;5073357;28;20135;-61
2021/09/03 05:16:42;;;;;;;11.32;7.68;;;15.60;99.90;;;;;;5072469;28;20032;-61
2021/09/03 05:19:08;;;;;;;11.48;7.70;;;15.60;99.90;;;;;;5072056;28;20454;-60
2021/09/03 05:21:34;;;;;;;11.35;8.05;;;15.60;99.90;;;;;;5072655;28;20021;-61
2021/09/03 05:23:59;;;;;;;10.98;7.30;;;15.70;99.90;;;;;;5072698;28;20052;-62
2021/09/03 05:26:25;;;;;;;15.27;8.05;;;15.70;99.90;;;;;;5072693;28;20078;-63
2021/09/03 05:28:51;;;;;;;10.07;7.57;;;15.70;99.90;;;;;;5072427;28;20029;-60
2021/09/03 05:31:17;;;;;;;12.65;7.95;;;15.80;99.90;;;;;;5071700;28;20204;-61
2021/09/03 05:33:44;;;;;;;11.80;7.35;;;15.80;99.90;;;;;;5074065;28;20041;-61
2021/09/03 05:36:09;;;;;;;11.23;8.23;;;15.90;99.90;;;;;;5071400;28;20082;-61
2021/09/03 05:38:35;;;;;;;16.45;8.25;;;15.90;99.90;;;;;;5071581;28;20040;-62
2021/09/03 05:41:01;;;;;;;10.45;7.05;;;16.00;99.90;;;;;;5071293;28;20040;-62
2021/09/03 05:43:27;;;;;;;12.30;8.18;;;16.00;99.90;;;;;;5071854;28;20473;-60
2021/09/03 05:45:53;;;;;;;13.77;7.93;;;16.00;99.90;;;;;;5073498;28;20054;-61
2021/09/03 05:48:18;;;;;;;7.53;6.72;;;16.10;99.90;;;;;;5072507;28;20039;-61
2021/09/03 05:50:44;;;;;;;9.38;7.70;;;16.20;99.90;;;;;;5071629;28;20073;-61
2021/09/03 05:53:10;;;;;;;10.60;8.57;;;16.20;99.90;;;;;;5072227;28;20024;-61
2021/09/03 05:55:35;;;;;;;11.73;7.78;;;16.20;99.90;;;;;;5071721;28;20036;-60
2021/09/03 05:58:01;;;;;;;12.57;9.30;;;16.20;99.90;;;;;;5072836;28;20036;-62
2021/09/03 06:00:27;;;;;;;10.07;7.93;;;16.30;99.90;;;;;;5071794;28;20509;-62
2021/09/03 06:02:52;;;;;;;9.88;7.15;;;16.30;99.90;;;;;;5073522;28;20032;-61
2021/09/03 06:05:18;;;;;;;9.93;7.65;;;16.40;99.90;;;;;;5070952;28;20028;-60
2021/09/03 06:07:44;;;;;;;9.90;8.27;;;16.30;99.90;;;;;;5071618;28;20029;-61
2021/09/03 06:10:11;;;;;;;11.20;7.82;;;16.50;99.90;;;;;;5071133;28;20024;-62
2021/09/03 06:12:37;;;;;;;13.43;8.25;;;16.50;99.90;;;;;;5071292;28;20085;-61
2021/09/03 06:15:07;;;;;;;9.05;7.55;;;16.50;99.90;;;;;;5072640;28;20323;-61
2021/09/03 06:17:33;;;;;;;12.45;7.78;;;16.60;99.90;;;;;;5072858;28;20109;-61
2021/09/03 06:19:58;;;;;;;11.60;7.45;;;16.80;99.90;;;;;;5072919;28;20422;-61
2021/09/03 06:22:24;;;;;;;11.85;7.72;;;16.90;99.90;;;;;;5072720;28;20442;-61
2021/09/03 06:24:51;;;;;;;9.48;7.50;;;17.20;99.90;;;;;;5072760;28;20040;-61
2021/09/03 06:27:16;;;;;;;10.85;7.82;;;17.20;99.90;;;;;;5071895;28;20040;-62
2021/09/03 06:29:42;;;;;;;9.70;7.55;;;17.30;99.90;;;;;;5071101;28;20031;-61
2021/09/03 06:32:14;;;;;;;14.27;7.78;;;17.50;99.90;;;;;;5070108;28;20116;-61
2021/09/03 06:34:41;;;;;;;;;;;17.60;99.90;;;;;;5071375;28;20428;-61
2021/09/03 06:37:08;;;;;;;10.55;8.10;;;17.70;99.90;;;;;;5069894;28;19908;-62
2021/09/03 06:39:34;;;;;;;9.05;6.78;;;17.90;99.90;;;;;;5072139;28;20024;-60
2021/09/03 06:42:00;;;;;;;13.18;7.78;;;17.90;99.90;;;;;;5070766;28;20476;-61
2021/09/03 06:44:26;;;;;;;12.18;7.50;;;18.10;99.90;;;;;;5071691;28;20537;-61
2021/09/03 06:46:52;;;;;;;9.48;7.15;;;18.20;99.90;;;;;;5070706;28;20036;-61
2021/09/03 06:49:18;;;;;;;9.48;7.45;;;18.30;99.90;;;;;;5071542;28;20513;-61
2021/09/03 06:51:43;;;;;;;10.27;6.63;;;18.40;99.90;;;;;;5071839;28;20059;-61
2021/09/03 06:54:09;;;;;;;11.10;6.93;;;18.70;99.90;;;;;;5071514;28;20062;-62
2021/09/03 06:56:35;;;;;;;10.75;6.53;;;18.80;99.90;;;;;;5070686;28;20101;-62
2021/09/03 06:59:02;;;;;;;8.68;6.50;;;19.00;99.90;;;;;;5071432;28;20382;-61
2021/09/03 07:01:28;;;;;;;13.50;6.32;;;19.20;99.90;;;;;;5086774;28;20031;-64
2021/09/03 07:03:54;;;;;;;10.98;6.57;;;19.50;99.90;;;;;;5079614;28;20032;-64
2021/09/03 07:06:19;;;;;;;10.43;6.57;;;19.70;99.90;;;;;;5069370;28;20449;-64
2021/09/03 07:08:45;;;;;;;9.50;7.05;;;19.80;99.90;;;;;;5070065;28;20021;-65
2021/09/03 07:11:10;;;;;;;10.65;6.25;;;20.10;99.90;;;;;;5069973;28;20027;-65
2021/09/03 07:13:36;;;;;;;10.75;6.22;;;20.30;99.90;;;;;;5069740;28;20110;-64
2021/09/03 07:16:03;;;;;;;10.00;6.05;;;20.40;99.90;;;;;;5071306;28;20024;-64
2021/09/03 07:18:29;;;;;;;8.60;5.85;;;20.60;99.90;;;;;;5077443;28;20031;-64
2021/09/03 07:20:55;;;;;;;8.00;5.78;;;20.70;99.90;;;;;;5079214;28;20112;-62
2021/09/03 07:23:21;;;;;;;10.93;5.93;;;21.00;99.90;;;;;;5090297;28;20123;-63
2021/09/03 07:25:46;;;;;;;7.15;5.70;;;21.00;99.90;;;;;;5076736;28;20039;-64
2021/09/03 07:28:12;;;;;;;5.38;4.40;;;21.10;99.90;;;;;;5069346;28;20028;-63
2021/09/03 07:30:38;;;;;;;5.63;4.55;;;21.40;99.90;;;;;;5085354;28;20370;-64
2021/09/03 07:33:04;;;;;;;9.00;4.28;;;21.30;99.90;;;;;;5089606;28;20392;-63
2021/09/03 07:35:29;;;;;;;9.60;6.50;;;21.50;99.90;;;;;;5090909;28;20063;-63
2021/09/03 07:37:56;;;;;;;9.50;6.00;;;21.60;99.90;;;;;;5089895;28;20032;-62
2021/09/03 07:40:26;;;;;;;16.88;7.75;;;21.70;99.90;;;;;;5089289;28;20032;-65
2021/09/03 07:42:53;;;;;;;12.53;6.97;;;21.50;99.90;;;;;;5090157;28;20028;-64
2021/09/03 07:45:19;;;;;;;12.93;6.88;;;21.70;99.90;;;;;;5089402;28;20024;-64
2021/09/03 07:47:44;;;;;;;12.05;6.18;;;21.80;99.90;;;;;;5091243;28;20030;-64
2021/09/03 07:50:10;;;;;;;8.13;6.22;;;21.90;99.90;;;;;;5089307;28;20020;-64
2021/09/03 07:52:36;;;;;;;14.75;6.43;;;22.20;99.90;;;;;;5089954;28;20081;-64
2021/09/03 07:55:03;;;;;;;14.15;6.93;;;22.40;99.90;;;;;;5083333;28;20207;-64
2021/09/03 07:57:28;;;;;;;8.30;6.30;;;22.60;99.90;;;;;;5068560;28;20024;-65
2021/09/03 07:59:54;;;;;;;7.53;5.53;;;22.80;99.90;;;;;;5071178;28;20373;-64
2021/09/03 08:02:20;;;;;;;8.40;5.47;;;22.70;99.80;;;;;;5067984;28;20135;-57
2021/09/03 08:04:46;;;;;;;9.68;5.53;;;22.70;99.90;;;;;;5069043;28;20040;-57
2021/09/03 08:07:11;;;;;;;9.82;6.22;;;22.90;99.90;;;;;;5067676;28;20035;-59
2021/09/03 08:09:37;;;;;;;10.23;5.18;;;23.10;99.90;;;;;;5067845;28;20031;-56
2021/09/03 08:12:03;;;;;;;10.15;5.43;;;23.20;99.40;;;;;;5069511;28;20025;-58
2021/09/03 08:14:29;;;;;;;8.23;5.22;;;23.40;99.80;;;;;;5067572;28;20028;-57
2021/09/03 08:16:55;;;;;;;11.13;5.53;;;23.70;99.50;;;;;;5068874;28;20025;-58
2021/09/03 08:19:21;;;;;;;10.20;5.45;;;23.80;98.50;;;;;;5069544;28;20037;-58
2021/09/03 08:21:47;;;;;;;11.45;5.28;;;23.90;98.30;;;;;;5074320;28;20043;-59
2021/09/03 08:24:12;;;;;;;9.02;4.93;;;23.90;98.30;;;;;;5087931;28;20128;-58
2021/09/03 08:26:38;;;;;;;6.45;4.82;;;23.70;98.40;;;;;;5088744;28;20024;-56
2021/09/03 08:29:05;;;;;;;15.57;5.78;;;23.90;98.40;;;;;;5086680;28;20028;-57
2021/09/03 08:31:31;;;;;;;6.50;4.78;;;23.90;98.00;;;;;;5089123;28;20483;-57
2021/09/03 08:33:57;;;;;;;8.02;4.90;;;24.20;97.90;;;;;;5088517;28;20059;-57
2021/09/03 08:36:22;;;;;;;8.40;5.03;;;24.30;97.40;;;;;;5090952;28;20032;-57
2021/09/03 08:38:48;;;;;;;8.75;5.22;;;24.60;97.40;;;;;;5094313;28;20131;-57
2021/09/03 08:41:19;;;;;;;6.80;5.10;;;24.60;97.00;;;;;;5091750;28;20028;-62
2021/09/03 08:43:45;;;;;;;6.47;4.87;;;24.80;96.70;;;;;;5091966;28;20119;-57
2021/09/03 08:46:13;;;;;;;10.98;4.78;;;25.00;96.60;;;;;;5089246;28;20278;-63
2021/09/03 08:48:42;;;;;;;8.18;4.78;;;25.00;95.80;;;;;;5071722;28;20032;-57
2021/09/03 08:51:09;;;;;;;6.55;5.00;;;24.90;95.10;;;;;;5087315;28;20028;-66
2021/09/03 08:53:35;;;;;;;8.00;4.90;;;24.70;95.10;;;;;;5092696;28;20032;-63
2021/09/03 08:56:01;;;;;;;8.60;5.68;;;24.60;95.10;;;;;;5092105;28;20032;-63
2021/09/03 08:58:26;;;;;;;6.28;5.30;;;24.60;94.50;;;;;;5092089;28;20325;-63
2021/09/03 09:01:10;;;;;;;6.45;4.43;;;24.30;94.50;;;;;;5092076;28;20067;-63
2021/09/03 09:03:38;;;;;;;6.78;5.47;;;24.50;94.70;;;;;;5071393;28;20458;-63
2021/09/03 09:06:04;;;;;;;10.65;5.43;;;24.70;94.60;;;;;;5088460;28;20032;-63
2021/09/03 09:08:32;;;;;;;7.10;5.57;;;24.90;94.60;;;;;;5091510;28;20156;-63
2021/09/03 09:11:02;;;;;;;8.90;5.50;;;25.20;94.50;;;;;;5091306;28;20097;-67
2021/09/03 09:13:30;;;;;;;8.50;4.60;;;25.50;94.20;;;;;;5089973;28;20028;-63
2021/09/03 09:16:14;;;;;;;14.65;5.35;;;25.80;93.70;;;;;;5093530;28;20289;-64
2021/09/03 09:18:51;;;;;;;8.55;5.45;;;26.00;93.70;;;;;;5092211;28;20477;-66
2021/09/03 09:21:29;;;;;;;9.52;5.32;;;25.70;92.50;;;;;;5091998;28;20024;-64
2021/09/03 09:24:08;;;;;;;10.93;4.93;;;25.10;92.80;;;;;;5093763;28;20465;-63
2021/09/03 09:26:50;;;;;;;8.75;5.10;;;25.40;92.70;;;;;;5093298;28;20043;-64
2021/09/03 09:29:31;;;;;;;8.85;6.00;;;25.60;92.40;;;;;;5092012;28;20035;-64
2021/09/03 09:32:08;;;;;;;8.00;5.20;;;25.50;92.70;;;;;;5081861;28;20040;-63
2021/09/03 09:34:39;;;;;;;9.20;5.07;;;25.40;92.60;;;;;;5088720;28;20040;-63
2021/09/03 09:37:07;;;;;;;8.75;5.15;;;25.80;92.40;;;;;;5093312;28;20074;-63
2021/09/03 09:39:43;;;;;;;11.00;5.50;;;25.70;92.00;;;;;;5092697;28;20028;-64
2021/09/03 09:42:22;;;;;;;6.28;5.50;;;25.30;92.40;;;;;;5088961;28;20500;-63
2021/09/03 09:45:00;;;;;;;9.13;5.68;;;25.60;93.40;;;;;;5071445;28;20028;-63
2021/09/03 09:47:26;;;;;;;8.40;5.22;;;25.90;92.20;;;;;;5070152;28;20043;-64
2021/09/03 09:49:54;;;;;;;6.80;4.55;;;26.00;91.80;;;;;;5072601;28;20025;-64
2021/09/03 09:52:34;;;;;;;9.02;4.88;;;26.40;91.70;;;;;;5071965;28;20085;-62
2021/09/03 09:55:00;;;;;;;10.30;5.38;;;26.60;91.40;;;;;;5073026;28;20047;-63
2021/09/03 09:57:29;;;;;;;9.40;4.82;;;26.80;90.70;;;;;;5072018;28;20468;-63
2021/09/03 09:59:56;;;;;;;8.38;4.50;;;27.10;90.80;;;;;;5070564;28;20140;-63
2021/09/03 10:02:21;;;;;;;5.88;3.97;;;27.40;90.30;;;;;;5071209;28;20428;-64
2021/09/03 10:04:48;;;;;;;8.38;5.15;;;27.30;88.90;;;;;;5072715;28;20103;-63
2021/09/03 10:07:14;;;;;;;6.53;4.32;;;27.10;89.30;;;;;;5070465;28;20024;-80
2021/09/03 10:09:40;;;;;;;5.65;4.70;;;27.40;89.60;;;;;;5071997;28;20358;-64
2021/09/03 10:12:06;;;;;;;6.32;4.32;;;27.70;89.90;;;;;;5072283;28;20020;-63
2021/09/03 10:14:34;;;;;;;8.93;4.40;;;27.50;87.50;;;;;;5072263;28;20035;-64
2021/09/03 10:17:00;;;;;;;7.00;3.90;;;27.60;86.40;;;;;;5070723;28;20561;-64
2021/09/03 10:19:37;;;;;;;4.22;3.72;;;27.80;86.60;;;;;;5071641;28;20473;-64
2021/09/03 10:22:09;;;;;;;5.68;4.30;;;27.80;84.70;;;;;;5071081;28;20120;-63
2021/09/03 10:24:36;;;;;;;11.55;4.82;;;27.80;85.90;;;;;;5071817;28;20233;-64
2021/09/03 10:27:04;;;;;;;5.78;3.78;;;28.00;85.90;;;;;;5072080;28;20346;-64
2021/09/03 10:29:39;;;;;;;7.32;5.15;;;28.20;85.20;;;;;;5070210;28;20047;-64
2021/09/03 10:32:08;;;;;;;6.30;4.20;;;28.50;86.30;;;;;;5071816;28;20048;-64
2021/09/03 10:34:43;;;;;;;36.50;11.48;;;28.70;84.30;;;;;;5071232;28;20076;-64
2021/09/03 10:37:15;;;;;;;71.82;22.52;;;28.80;84.30;;;;;;5071657;28;20059;-63
2021/09/03 10:39:43;;;;;;;18.13;8.02;;;29.20;85.50;;;;;;5070839;28;20047;-64
2021/09/03 10:42:09;;;;;;;16.35;5.75;;;29.50;83.60;;;;;;5069580;28;20021;-63
2021/09/03 10:45:06;;;;;;;6.55;4.50;;;28.60;80.00;;;;;;5070536;28;20031;-63
2021/09/03 10:47:40;;;;;;;17.23;6.68;;;28.60;80.70;;;;;;5070834;28;20203;-63
2021/09/03 10:50:22;;;;;;;6.22;3.92;;;28.50;83.00;;;;;;5069472;28;20494;-62
2021/09/03 10:53:05;;;;;;;4.35;3.58;;;27.80;81.40;;;;;;5087424;28;20035;-63
2021/09/03 10:55:52;;;;;;;4.20;3.33;;;27.30;79.00;;;;;;5088593;28;20072;-64
2021/09/03 10:58:28;;;;;;;5.22;3.78;;;27.80;80.60;;;;;;5086698;28;20434;-75
2021/09/03 11:01:10;;;;;;;6.30;3.65;;;28.00;79.70;;;;;;5087093;28;20032;-62
2021/09/03 11:03:39;;;;;;;4.82;3.05;;;27.80;78.40;;;;;;5084062;28;20486;-61
2021/09/03 11:06:06;;;;;;;8.73;3.40;;;27.80;78.30;;;;;;5089743;28;20036;-62
2021/09/03 11:08:45;;;;;;;6.05;3.30;;;27.90;79.60;;;;;;5088296;28;20123;-61
2021/09/03 11:11:40;;;;;;;5.20;3.80;;;27.90;78.90;;;;;;5089273;28;20020;-62
2021/09/03 11:14:20;;;;;;;4.45;3.83;;;28.30;79.40;;;;;;5072843;28;20179;-62
2021/09/03 11:16:50;;;;;;;6.43;3.50;;;27.70;79.60;;;;;;5088506;28;20036;-62
2021/09/03 11:19:19;;;;;;;6.80;4.17;;;28.40;79.10;;;;;;5088921;28;20036;-62
2021/09/03 11:21:54;;;;;;;4.82;3.65;;;28.90;79.50;;;;;;5088521;28;20056;-62
2021/09/03 11:24:23;;;;;;;4.85;3.83;;;29.20;77.00;;;;;;5090090;28;20426;-75
2021/09/03 11:26:51;;;;;;;8.32;4.47;;;29.30;76.80;;;;;;5088566;28;20034;-62
2021/09/03 11:29:18;;;;;;;5.47;3.20;;;29.70;75.70;;;;;;5088593;28;20422;-63
2021/09/03 11:32:06;;;;;;;7.60;4.18;;;29.70;74.60;;;;;;5089191;28;20209;-63
2021/09/03 11:34:46;;;;;;;6.93;3.47;;;29.90;75.20;;;;;;5069440;28;20060;-63
2021/09/03 11:37:23;;;;;;;3.63;3.33;;;29.90;74.60;;;;;;5080307;28;20036;-62
2021/09/03 11:39:51;;;;;;;5.20;3.67;;;30.20;74.60;;;;;;5068133;28;20123;-62
2021/09/03 11:42:28;;;;;;;3.83;3.03;;;30.30;74.30;;;;;;5085231;28;20034;-63
2021/09/03 11:45:01;;;;;;;5.85;3.05;;;29.90;73.40;;;;;;5069857;28;20111;-62
2021/09/03 11:47:34;;;;;;;5.22;3.55;;;30.40;73.80;;;;;;5084874;28;20075;-63
2021/09/03 11:50:00;;;;;;;10.25;3.17;;;30.30;72.00;;;;;;5085435;28;20028;-63
2021/09/03 11:52:28;;;;;;;6.90;3.17;;;30.50;71.40;;;;;;5084443;28;20131;-63
2021/09/03 11:54:55;;;;;;;3.88;3.13;;;30.50;71.40;;;;;;5085171;28;20031;-62
2021/09/03 11:57:21;;;;;;;4.13;3.03;;;30.10;70.10;;;;;;5084810;28;20043;-74
2021/09/03 12:00:05;;;;;;;4.15;3.33;;;29.30;70.90;;;;;;5069420;28;20047;-62
2021/09/03 12:02:31;;;;;;;8.50;3.72;;;29.50;71.60;;;;;;5065818;28;20338;-63
2021/09/03 12:04:58;;;;;;;5.85;3.35;;;29.60;71.60;;;;;;5068434;28;20090;-63
2021/09/03 12:07:24;;;;;;;7.00;3.63;;;29.30;71.80;;;;;;5077138;28;20492;-73
2021/09/03 12:09:55;;;;;;;6.88;3.25;;;29.30;72.60;;;;;;5090394;28;20024;-63
2021/09/03 12:12:29;;;;;;;3.33;3.03;;;29.70;73.00;;;;;;5074529;28;20077;-72
2021/09/03 12:15:00;;;;;;;4.45;3.42;;;30.50;73.40;;;;;;5069266;28;20399;-63
2021/09/03 12:17:55;;;;;;;3.30;3.00;;;29.50;70.50;;;;;;5068843;28;20032;-63
2021/09/03 12:20:21;;;;;;;3.42;3.13;;;29.70;72.40;;;;;;5055742;28;20486;-72
2021/09/03 12:22:53;;;;;;;5.60;3.90;;;29.90;71.70;;;;;;5067222;28;20039;-63
2021/09/03 12:25:30;;;;;;;15.35;5.72;;;30.40;71.90;;;;;;5067796;28;20040;-66
2021/09/03 12:28:15;;;;;;;6.05;3.92;;;30.80;73.00;;;;;;5067923;28;20028;-66
2021/09/03 12:30:41;;;;;;;9.90;4.25;;;31.10;70.90;;;;;;5050363;28;20033;-65
2021/09/03 12:33:44;;;;;;;5.75;4.18;;;31.00;74.60;;;;;;5067821;28;20538;-64
2021/09/03 12:36:11;;;;;;;9.40;5.00;;;30.80;74.20;;;;;;5055083;28;20060;-63
2021/09/03 12:38:43;;;;;;;5.13;3.53;;;30.10;71.70;;;;;;5067420;28;20040;-64
2021/09/03 12:41:20;;;;;;;6.15;4.38;;;29.70;72.20;;;;;;5068269;28;20021;-63
2021/09/03 12:43:52;;;;;;;3.90;3.25;;;29.70;74.10;;;;;;5068594;28;20033;-63
2021/09/03 12:46:18;;;;;;;5.22;3.60;;;30.10;71.90;;;;;;5070352;28;20081;-66